Time;durP1;ratioP1;P1;durP2;ratioP2;P2;SDS_P1;SDS_P2;PMS_P1;PMS_P2;Temp;Humidity;BMP_temperature;BMP_pressure;BME280_temperature;BME280_humidity;BME280_pressure;Samples;Min_cycle;Max_cycle;Signal;HPM_P1;HPM_P2
2023/09/01 00:04:35;;;;;;;;;;;;;;;14.33;85.28223;101266.6;;;;-80
2023/09/01 00:09:39;;;;;;;;;;;;;;;14.27;85.37012;101257.3;;;;-80
2023/09/01 00:14:34;;;;;;;;;;;;;;;14.24;85.93555;101254.9;;;;-80
2023/09/01 00:18:43;;;;;;;4.9;1.7;;;;;;;;;;;;;-81
2023/09/01 00:19:35;;;;;;;;;;;;;;;14.23;86.16406;101256.8;;;;-81
2023/09/01 00:24:37;;;;;;;;;;;;;;;14.24;86.12305;101252.7;;;;-79
2023/09/01 00:29:37;;;;;;;;;;;;;;;14.27;87.26465;101256.5;;;;-79
2023/09/01 00:34:34;;;;;;;;;;;;;;;14.32;85.84863;101261;;;;-79
2023/09/01 00:39:33;;;;;;;;;;;;;;;14.39;85.2041;101266.1;;;;-80
2023/09/01 00:44:34;;;;;;;;;;;;;;;14.43;84.92285;101259.2;;;;-80
2023/09/01 00:48:45;;;;;;;4.5;1.5;;;;;;;;;;;;;-81
2023/09/01 00:54:34;;;;;;;;;;;;;;;14.47;85.59863;101246.4;;;;-79
2023/09/01 00:59:36;;;;;;;;;;;;;;;14.52;86.05566;101244.1;;;;-80
2023/09/01 01:04:35;;;;;;;;;;;;;;;14.53;86.10156;101236.2;;;;-80
2023/09/01 01:09:37;;;;;;;;;;;;;;;14.52;86.34473;101238.4;;;;-80
2023/09/01 01:14:38;;;;;;;;;;;;;;;14.5;85.28223;101240.5;;;;-80
2023/09/01 01:19:04;;;;;;;5.7;2;;;;;;;;;;;;;-80
2023/09/01 01:19:43;;;;;;;;;;;;;;;14.52;86.41211;101245;;;;-80
2023/09/01 01:24:37;;;;;;;;;;;;;;;14.46;87.30176;101240.9;;;;-81
2023/09/01 01:29:33;;;;;;;;;;;;;;;14.41;87.99512;101238.4;;;;-79
2023/09/01 01:34:37;;;;;;;;;;;;;;;14.4;88.16016;101236.2;;;;-81
2023/09/01 01:39:36;;;;;;;;;;;;;;;14.39;87.74414;101235.3;;;;-80
2023/09/01 01:44:38;;;;;;;;;;;;;;;14.34;88.13574;101231.2;;;;-80
2023/09/01 01:48:47;;;;;;;6.5;2.4;;;;;;;;;;;;;-81
2023/09/01 01:49:45;;;;;;;;;;;;;;;14.33;88.26758;101230.6;;;;-78
2023/09/01 01:54:34;;;;;;;;;;;;;;;14.35;88.23828;101225.2;;;;-79
2023/09/01 01:59:33;;;;;;;;;;;;;;;14.39;87.83496;101225.4;;;;-82
2023/09/01 02:04:32;;;;;;;;;;;;;;;14.43;87.46582;101226.5;;;;-80
2023/09/01 02:09:35;;;;;;;;;;;;;;;14.5;86.77441;101229.3;;;;-79
2023/09/01 02:14:32;;;;;;;;;;;;;;;14.57;86.35352;101230.2;;;;-79
2023/09/01 02:18:50;;;;;;;8.1;3.5;;;;;;;;;;;;;-79
2023/09/01 02:19:39;;;;;;;;;;;;;;;14.6;86.36133;101230.7;;;;-81
2023/09/01 02:24:32;;;;;;;;;;;;;;;14.64;86.55762;101232.2;;;;-79
2023/09/01 02:29:33;;;;;;;;;;;;;;;14.63;86.32227;101220.5;;;;-80
2023/09/01 02:34:36;;;;;;;;;;;;;;;14.65;87.5293;101224.8;;;;-80
2023/09/01 02:39:34;;;;;;;;;;;;;;;14.62;88.77148;101230.5;;;;-81
2023/09/01 02:44:32;;;;;;;;;;;;;;;14.58;89.90039;101230;;;;-81
2023/09/01 02:48:52;;;;;;;9.6;4.6;;;;;;;;;;;;;-78
2023/09/01 02:49:33;;;;;;;;;;;;;;;14.6;90.27148;101229.3;;;;-82
2023/09/01 02:54:32;;;;;;;;;;;;;;;14.61;91.13086;101226.6;;;;-80
2023/09/01 02:59:35;;;;;;;;;;;;;;;14.59;92.27148;101223.3;;;;-81
2023/09/01 03:04:33;;;;;;;;;;;;;;;14.62;93.49219;101225.4;;;;-80
2023/09/01 03:09:34;;;;;;;;;;;;;;;14.63;94.62793;101222.9;;;;-79
2023/09/01 03:14:32;;;;;;;;;;;;;;;14.64;95.36426;101221.8;;;;-81
2023/09/01 03:18:59;;;;;;;15;6.5;;;;;;;;;;;;;-79
2023/09/01 03:19:32;;;;;;;;;;;;;;;14.7;95.94434;101219.1;;;;-80
2023/09/01 03:24:34;;;;;;;;;;;;;;;14.67;96.33691;101217.6;;;;-79
2023/09/01 03:29:32;;;;;;;;;;;;;;;14.71;96.72461;101223.2;;;;-78
2023/09/01 03:34:33;;;;;;;;;;;;;;;14.71;97.20313;101226.4;;;;-80
2023/09/01 03:39:33;;;;;;;;;;;;;;;14.67;98.44824;101229.9;;;;-80
2023/09/01 03:44:33;;;;;;;;;;;;;;;14.68;98.76172;101231.2;;;;-79
2023/09/01 03:48:56;;;;;;;17;7.4;;;;;;;;;;;;;-80
2023/09/01 03:49:32;;;;;;;;;;;;;;;14.64;99.06445;101223;;;;-79
2023/09/01 03:54:32;;;;;;;;;;;;;;;14.67;99.41504;101219.7;;;;-80
2023/09/01 03:59:32;;;;;;;;;;;;;;;14.65;99.52148;101211.4;;;;-79
2023/09/01 04:04:33;;;;;;;;;;;;;;;14.71;99.01367;101214.3;;;;-78
2023/09/01 04:09:32;;;;;;;;;;;;;;;14.71;99.1582;101209.1;;;;-81
2023/09/01 04:14:32;;;;;;;;;;;;;;;14.7;98.29004;101206.5;;;;-81
2023/09/01 04:19:01;;;;;;;15.7;7.6;;;;;;;;;;;;;-82
2023/09/01 04:19:33;;;;;;;;;;;;;;;14.69;99.47656;101210.3;;;;-81
2023/09/01 04:24:32;;;;;;;;;;;;;;;14.73;99.71777;101223.8;;;;-81
2023/09/01 04:29:33;;;;;;;;;;;;;;;14.75;99.36426;101215.9;;;;-81
2023/09/01 04:34:32;;;;;;;;;;;;;;;14.73;99.45313;101216.8;;;;-80
2023/09/01 04:39:33;;;;;;;;;;;;;;;14.75;100;101215.7;;;;-80
2023/09/01 04:44:33;;;;;;;;;;;;;;;14.73;100;101218;;;;-80
2023/09/01 04:49:01;;;;;;;16.7;7.5;;;;;;;;;;;;;-80
2023/09/01 04:49:33;;;;;;;;;;;;;;;14.75;100;101220.1;;;;-79
2023/09/01 04:54:33;;;;;;;;;;;;;;;14.76;100;101229.4;;;;-79
2023/09/01 04:59:33;;;;;;;;;;;;;;;14.75;100;101233.9;;;;-79
2023/09/01 05:04:33;;;;;;;;;;;;;;;14.77;100;101236.3;;;;-81
2023/09/01 05:09:32;;;;;;;;;;;;;;;14.82;100;101237.3;;;;-79
2023/09/01 05:14:34;;;;;;;;;;;;;;;14.85;100;101241.6;;;;-79
2023/09/01 05:19:04;;;;;;;14.7;7.6;;;;;;;;;;;;;-80
2023/09/01 05:19:32;;;;;;;;;;;;;;;14.87;100;101243.8;;;;-79
2023/09/01 05:24:35;;;;;;;;;;;;;;;14.92;100;101234.1;;;;-80
2023/09/01 05:29:33;;;;;;;;;;;;;;;14.98;100;101238.7;;;;-80
2023/09/01 05:34:33;;;;;;;;;;;;;;;15.02;100;101237.2;;;;-79
2023/09/01 05:39:32;;;;;;;;;;;;;;;15.07;99.44922;101233.6;;;;-80
2023/09/01 05:44:34;;;;;;;;;;;;;;;15.1;99.96875;101228;;;;-79
2023/09/01 05:49:06;;;;;;;15.4;7.4;;;;;;;;;;;;;-80
2023/09/01 05:49:33;;;;;;;;;;;;;;;15.15;100;101229.9;;;;-79
2023/09/01 05:54:32;;;;;;;;;;;;;;;15.22;99.74805;101229.2;;;;-81
2023/09/01 05:59:32;;;;;;;;;;;;;;;15.28;100;101235.4;;;;-79
2023/09/01 06:04:34;;;;;;;;;;;;;;;15.36;99.83887;101238.6;;;;-80
2023/09/01 06:09:34;;;;;;;;;;;;;;;15.49;98.77539;101245.7;;;;-78
2023/09/01 06:14:33;;;;;;;;;;;;;;;15.59;98.31836;101250.2;;;;-78
2023/09/01 06:19:09;;;;;;;18.1;7.8;;;;;;;;;;;;;-80
2023/09/01 06:19:32;;;;;;;;;;;;;;;15.66;97.35645;101259.3;;;;-81
2023/09/01 06:24:33;;;;;;;;;;;;;;;15.73;96.58008;101267.8;;;;-78
2023/09/01 06:29:33;;;;;;;;;;;;;;;15.77;95.67383;101264.9;;;;-80
2023/09/01 06:34:33;;;;;;;;;;;;;;;15.86;94.38867;101268.7;;;;-80
2023/09/01 06:39:35;;;;;;;;;;;;;;;15.89;94.84082;101269.9;;;;-78
2023/09/01 06:44:35;;;;;;;;;;;;;;;15.9;94.44336;101277.5;;;;-81
2023/09/01 06:49:12;;;;;;;13.5;6.7;;;;;;;;;;;;;-79
2023/09/01 06:49:33;;;;;;;;;;;;;;;15.94;94.31738;101268.3;;;;-79
2023/09/01 06:54:33;;;;;;;;;;;;;;;16.01;94.57813;101271.9;;;;-78
2023/09/01 06:59:35;;;;;;;;;;;;;;;16.09;94.29199;101280.5;;;;-80
2023/09/01 07:04:32;;;;;;;;;;;;;;;16.2;93.63477;101281.5;;;;-80
2023/09/01 07:09:32;;;;;;;;;;;;;;;16.28;92.84766;101278.3;;;;-80
2023/09/01 07:14:32;;;;;;;;;;;;;;;16.43;91.7959;101273.5;;;;-80
2023/09/01 07:19:14;;;;;;;10.9;5.7;;;;;;;;;;;;;-79
2023/09/01 07:19:33;;;;;;;;;;;;;;;16.53;91.45898;101262.1;;;;-80
2023/09/01 07:24:32;;;;;;;;;;;;;;;16.64;90.55371;101254.1;;;;-80
2023/09/01 07:29:32;;;;;;;;;;;;;;;16.73;90.35938;101251.5;;;;-80
2023/09/01 07:34:32;;;;;;;;;;;;;;;16.82;89.30176;101261.8;;;;-81
2023/09/01 07:39:32;;;;;;;;;;;;;;;16.86;89.74707;101262.2;;;;-81
2023/09/01 07:44:32;;;;;;;;;;;;;;;16.97;88.5957;101265.7;;;;-80
2023/09/01 07:49:18;;;;;;;10.7;5.5;;;;;;;;;;;;;-81
2023/09/01 07:49:33;;;;;;;;;;;;;;;16.96;88.22168;101264.5;;;;-80
2023/09/01 07:54:32;;;;;;;;;;;;;;;16.99;88.46289;101270.8;;;;-80
2023/09/01 07:59:32;;;;;;;;;;;;;;;17.03;88.30371;101264.5;;;;-79
2023/09/01 08:04:32;;;;;;;;;;;;;;;17.12;87.81738;101256.9;;;;-80
2023/09/01 08:09:32;;;;;;;;;;;;;;;17.22;87.76855;101256.4;;;;-80
2023/09/01 08:14:33;;;;;;;;;;;;;;;17.35;85.59668;101257.7;;;;-79
2023/09/01 08:19:20;;;;;;;12.1;6.2;;;;;;;;;;;;;-79
2023/09/01 08:19:36;;;;;;;;;;;;;;;17.07;86.42773;101238.3;;;;-80
2023/09/01 08:24:38;;;;;;;;;;;;;;;17.31;85.87988;101259.8;;;;-80
2023/09/01 08:29:32;;;;;;;;;;;;;;;17.37;85.91406;101264.9;;;;-81
2023/09/01 08:34:34;;;;;;;;;;;;;;;17.29;86.75293;101271.4;;;;-80
2023/09/01 08:39:46;;;;;;;;;;;;;;;17.39;85.80566;101271.4;;;;-78
2023/09/01 08:44:53;;;;;;;;;;;;;;;17.32;85.0625;101286.3;;;;-80
2023/09/01 08:49:52;;;;;;;9.3;4.4;;;;;;;;;;;;;-79
2023/09/01 08:54:47;;;;;;;;;;;;;;;17.29;83.60938;101290.6;;;;-79
2023/09/01 09:20:18;;;;;;;9.5;4.4;;;;;;;;;;;;;-80
2023/09/01 09:33:10;;;;;;;;;;;;;;;17.92;81.07324;101301.1;;;;-79
2023/09/01 09:38:09;;;;;;;;;;;;;;;17.99;81.46777;101296.8;;;;-77
2023/09/01 09:43:12;;;;;;;;;;;;;;;18.28;80.74609;101298.2;;;;-78
2023/09/01 09:48:09;;;;;;;;;;;;;;;18.55;79.13672;101314.9;;;;-77
2023/09/01 09:49:33;;;;;;;8.6;4.4;;;;;;;;;;;;;-78
2023/09/01 09:53:09;;;;;;;;;;;;;;;18.66;78.36719;101317.1;;;;-78
2023/09/01 09:58:12;;;;;;;;;;;;;;;18.86;77.94141;101313.5;;;;-77
2023/09/01 10:03:11;;;;;;;;;;;;;;;19.12;76.66406;101324;;;;-78
2023/09/01 10:08:09;;;;;;;;;;;;;;;19.14;75.23242;101325.2;;;;-77
2023/09/01 10:13:10;;;;;;;;;;;;;;;19.36;73.86816;101323.2;;;;-78
2023/09/01 10:18:09;;;;;;;;;;;;;;;19.95;72.80957;101322.6;;;;-77
2023/09/01 10:19:37;;;;;;;9.4;3.8;;;;;;;;;;;;;-79
2023/09/01 10:23:11;;;;;;;;;;;;;;;20.01;71.14355;101326.8;;;;-78
2023/09/01 10:28:10;;;;;;;;;;;;;;;20.13;70.4375;101324.4;;;;-77
2023/09/01 10:33:15;;;;;;;;;;;;;;;19.96;69.70703;101327;;;;-78
2023/09/01 10:38:22;;;;;;;;;;;;;;;20.14;68.28223;101329.6;;;;-79
2023/09/01 10:43:15;;;;;;;;;;;;;;;20.56;67.65332;101323.7;;;;-77
2023/09/01 10:48:11;;;;;;;;;;;;;;;20.84;65.89746;101326.2;;;;-77
2023/09/01 10:49:47;;;;;;;8;3.4;;;;;;;;;;;;;-77
2023/09/01 10:53:19;;;;;;;;;;;;;;;21.12;64.73242;101326.2;;;;-79
2023/09/01 10:58:12;;;;;;;;;;;;;;;21.26;64.33203;101333.1;;;;-77
2023/09/01 11:03:20;;;;;;;;;;;;;;;21.6;64.8584;101333.1;;;;-77
2023/09/01 11:08:19;;;;;;;;;;;;;;;21.78;63.9502;101344.2;;;;-77
2023/09/01 11:13:19;;;;;;;;;;;;;;;21.82;61.65039;101341.1;;;;-77
2023/09/01 11:18:19;;;;;;;;;;;;;;;21.19;63.75195;101341.1;;;;-76
2023/09/01 11:19:50;;;;;;;8.3;3.1;;;;;;;;;;;;;-77
2023/09/01 11:23:09;;;;;;;;;;;;;;;21.42;64.92383;101343.6;;;;-78
2023/09/01 11:28:09;;;;;;;;;;;;;;;21.68;63.04688;101339.2;;;;-78
2023/09/01 11:33:18;;;;;;;;;;;;;;;21.76;62.7832;101353.8;;;;-78
2023/09/01 11:38:09;;;;;;;;;;;;;;;21.93;62.5791;101350.1;;;;-78
2023/09/01 11:43:08;;;;;;;;;;;;;;;21.76;63.77734;101356.4;;;;-78
2023/09/01 11:48:09;;;;;;;;;;;;;;;21.71;63.18652;101364.3;;;;-80
2023/09/01 11:49:48;;;;;;;6.4;3.2;;;;;;;;;;;;;-80
2023/09/01 11:53:29;;;;;;;;;;;;;;;21.64;62.6748;101375.6;;;;-79
2023/09/01 11:58:11;;;;;;;;;;;;;;;21.75;62.62207;101375.1;;;;-78
2023/09/01 12:03:10;;;;;;;;;;;;;;;21.78;62.67285;101377.8;;;;-79
2023/09/01 12:08:12;;;;;;;;;;;;;;;21.92;62.69238;101370.7;;;;-76
2023/09/01 12:13:11;;;;;;;;;;;;;;;21.76;62.72559;101377.1;;;;-79
2023/09/01 12:18:20;;;;;;;;;;;;;;;21.63;64.22363;101379.6;;;;-77
2023/09/01 12:19:53;;;;;;;7.7;4.5;;;;;;;;;;;;;-78
2023/09/01 12:23:09;;;;;;;;;;;;;;;21.83;62.82715;101389.2;;;;-77
2023/09/01 12:28:10;;;;;;;;;;;;;;;21.74;62.95117;101395.1;;;;-76
2023/09/01 12:33:09;;;;;;;;;;;;;;;21.65;64.46875;101397.3;;;;-80
2023/09/01 12:38:08;;;;;;;;;;;;;;;21.41;64.61523;101394.5;;;;-76
2023/09/01 12:43:09;;;;;;;;;;;;;;;21.79;63.6084;101393;;;;-78
2023/09/01 12:48:11;;;;;;;;;;;;;;;21.86;62.68457;101388.8;;;;-77
2023/09/01 12:49:52;;;;;;;7.8;4.3;;;;;;;;;;;;;-77
2023/09/01 12:53:09;;;;;;;;;;;;;;;22.1;61.99805;101388.7;;;;-78
2023/09/01 12:58:09;;;;;;;;;;;;;;;22.29;62.02441;101384.4;;;;-79
2023/09/01 13:03:10;;;;;;;;;;;;;;;22.01;62.24805;101394.4;;;;-77
2023/09/01 13:08:09;;;;;;;;;;;;;;;22.27;62.26172;101396.7;;;;-78
2023/09/01 13:13:08;;;;;;;;;;;;;;;21.97;61.93359;101404.5;;;;-77
2023/09/01 13:18:12;;;;;;;;;;;;;;;21.6;63.53711;101401.3;;;;-78
2023/09/01 13:19:57;;;;;;;7.1;3.8;;;;;;;;;;;;;-79
2023/09/01 13:23:10;;;;;;;;;;;;;;;21.72;64.24902;101408.3;;;;-77
2023/09/01 13:28:10;;;;;;;;;;;;;;;21.62;64.47461;101409.1;;;;-77
2023/09/01 13:33:13;;;;;;;;;;;;;;;21.41;65.57227;101421.1;;;;-78
2023/09/01 13:38:10;;;;;;;;;;;;;;;21.42;65.93848;101422.9;;;;-78
2023/09/01 13:43:10;;;;;;;;;;;;;;;21.35;66.74902;101425.8;;;;-78
2023/09/01 13:48:09;;;;;;;;;;;;;;;21.42;65.91504;101432;;;;-78
2023/09/01 13:50:00;;;;;;;7.6;4.6;;;;;;;;;;;;;-77
2023/09/01 13:53:09;;;;;;;;;;;;;;;21.2;66.97656;101427.6;;;;-77
2023/09/01 13:58:09;;;;;;;;;;;;;;;21.2;67.09961;101434.4;;;;-77
2023/09/01 14:03:12;;;;;;;;;;;;;;;21.01;67.78809;101432.8;;;;-77
2023/09/01 14:08:13;;;;;;;;;;;;;;;21.01;68.22168;101429.3;;;;-78
2023/09/01 14:13:09;;;;;;;;;;;;;;;21.27;67.82813;101432.4;;;;-78
2023/09/01 14:18:09;;;;;;;;;;;;;;;21.39;67.25488;101433;;;;-78
2023/09/01 14:20:05;;;;;;;9.2;4.6;;;;;;;;;;;;;-77
2023/09/01 14:23:09;;;;;;;;;;;;;;;21.2;68.24902;101432;;;;-79
2023/09/01 14:28:09;;;;;;;;;;;;;;;21.21;68.40039;101434.5;;;;-78
2023/09/01 14:33:10;;;;;;;;;;;;;;;21.29;68.32129;101432.1;;;;-78
2023/09/01 14:38:11;;;;;;;;;;;;;;;21.44;67.79688;101435.1;;;;-79
2023/09/01 14:43:08;;;;;;;;;;;;;;;21.11;68.17969;101434.7;;;;-78
2023/09/01 14:48:09;;;;;;;;;;;;;;;20.93;68.30176;101438.6;;;;-77
2023/09/01 14:50:09;;;;;;;8.4;5.1;;;;;;;;;;;;;-77
2023/09/01 14:53:29;;;;;;;;;;;;;;;20.93;69.45898;101435.1;;;;-78
2023/09/01 14:58:08;;;;;;;;;;;;;;;21.19;68.97754;101432.9;;;;-78
2023/09/01 15:03:09;;;;;;;;;;;;;;;21.49;67.95313;101437.6;;;;-78
2023/09/01 15:08:09;;;;;;;;;;;;;;;21.91;66.2627;101442.2;;;;-78
2023/09/01 15:13:24;;;;;;;;;;;;;;;21.81;66.62305;101440.2;;;;-78
2023/09/01 15:18:09;;;;;;;;;;;;;;;21.93;66.20703;101437.8;;;;-78
2023/09/01 15:20:17;;;;;;;8.8;5;;;;;;;;;;;;;-78
2023/09/01 15:23:10;;;;;;;;;;;;;;;22.08;65.01953;101439.6;;;;-78
2023/09/01 15:28:10;;;;;;;;;;;;;;;22.08;65.14648;101432.7;;;;-77
2023/09/01 15:33:09;;;;;;;;;;;;;;;21.86;65.98145;101436.5;;;;-79
2023/09/01 15:38:09;;;;;;;;;;;;;;;21.33;67.9043;101444.4;;;;-77
2023/09/01 15:43:13;;;;;;;;;;;;;;;21.59;67.26074;101446.9;;;;-77
2023/09/01 15:48:09;;;;;;;;;;;;;;;21.81;67.10059;101441.2;;;;-79
2023/09/01 15:50:18;;;;;;;9.8;6.7;;;;;;;;;;;;;-79
2023/09/01 15:53:09;;;;;;;;;;;;;;;22.02;66.0498;101436.5;;;;-78
2023/09/01 15:58:09;;;;;;;;;;;;;;;22.1;66.53906;101442.5;;;;-78
2023/09/01 16:03:11;;;;;;;;;;;;;;;22.55;65.37402;101439.6;;;;-78
2023/09/01 16:08:09;;;;;;;;;;;;;;;22.73;63.62793;101436.5;;;;-78
2023/09/01 16:13:08;;;;;;;;;;;;;;;22.74;63.24121;101438.5;;;;-79
2023/09/01 16:18:16;;;;;;;;;;;;;;;22.68;63.58789;101442.1;;;;-79
2023/09/01 16:20:31;;;;;;;9.5;5.9;;;;;;;;;;;;;-78
2023/09/01 16:23:11;;;;;;;;;;;;;;;22.57;64.38184;101440.2;;;;-80
2023/09/01 16:28:11;;;;;;;;;;;;;;;21.86;66.12891;101448;;;;-79
2023/09/01 16:33:12;;;;;;;;;;;;;;;21.12;68.97754;101452.3;;;;-79
2023/09/01 16:38:10;;;;;;;;;;;;;;;21.16;69.2334;101448.7;;;;-80
2023/09/01 16:43:09;;;;;;;;;;;;;;;20.99;69.69629;101442.7;;;;-79
2023/09/01 16:48:09;;;;;;;;;;;;;;;20.88;70.24805;101453.4;;;;-79
2023/09/01 16:50:25;;;;;;;9.5;5.6;;;;;;;;;;;;;-78
2023/09/01 16:53:09;;;;;;;;;;;;;;;20.86;70.57422;101452.9;;;;-79
2023/09/01 16:58:09;;;;;;;;;;;;;;;20.73;71.78125;101457.1;;;;-78
2023/09/01 17:03:09;;;;;;;;;;;;;;;20.7;72.10449;101462.1;;;;-77
2023/09/01 17:08:09;;;;;;;;;;;;;;;20.7;72.12695;101465.1;;;;-78
2023/09/01 17:13:13;;;;;;;;;;;;;;;20.6;72.64453;101467.5;;;;-79
2023/09/01 17:18:09;;;;;;;;;;;;;;;20.35;73.43066;101476.5;;;;-79
2023/09/01 17:20:30;;;;;;;9.7;5.9;;;;;;;;;;;;;-78
2023/09/01 17:23:09;;;;;;;;;;;;;;;20.27;74.56152;101477.1;;;;-78
2023/09/01 17:28:10;;;;;;;;;;;;;;;20.24;74.69434;101481.4;;;;-78
2023/09/01 17:33:09;;;;;;;;;;;;;;;20.01;76.27441;101488.6;;;;-77
2023/09/01 17:38:08;;;;;;;;;;;;;;;19.85;77.60352;101491.6;;;;-77
2023/09/01 17:43:09;;;;;;;;;;;;;;;19.81;79.21484;101491.4;;;;-81
2023/09/01 17:48:09;;;;;;;;;;;;;;;19.67;80.08301;101492.3;;;;-77
2023/09/01 17:50:32;;;;;;;10.6;6.9;;;;;;;;;;;;;-79
2023/09/01 17:53:08;;;;;;;;;;;;;;;19.58;82.52832;101505.5;;;;-80
2023/09/01 17:58:10;;;;;;;;;;;;;;;19.41;85.48535;101508.3;;;;-77
2023/09/01 18:03:10;;;;;;;;;;;;;;;19.11;89.10059;101509.4;;;;-80
2023/09/01 18:08:12;;;;;;;;;;;;;;;18.72;91.7627;101524.7;;;;-77
2023/09/01 18:13:11;;;;;;;;;;;;;;;18.39;95.95703;101529.7;;;;-78
2023/09/01 18:18:09;;;;;;;;;;;;;;;18.25;99.63672;101540.8;;;;-78
2023/09/01 18:20:38;;;;;;;16;11.4;;;;;;;;;;;;;-78
2023/09/01 18:23:09;;;;;;;;;;;;;;;18.14;100;101544.3;;;;-78
2023/09/01 18:28:09;;;;;;;;;;;;;;;18.08;100;101550.6;;;;-78
2023/09/01 18:33:17;;;;;;;;;;;;;;;17.96;100;101553.4;;;;-78
2023/09/01 18:38:11;;;;;;;;;;;;;;;17.89;100;101559.9;;;;-78
2023/09/01 18:43:10;;;;;;;;;;;;;;;17.85;100;101560.9;;;;-78
2023/09/01 18:48:12;;;;;;;;;;;;;;;17.84;100;101561.1;;;;-78
2023/09/01 18:50:42;;;;;;;16.5;11.9;;;;;;;;;;;;;-78
2023/09/01 18:53:09;;;;;;;;;;;;;;;17.79;100;101569.3;;;;-78
2023/09/01 18:58:12;;;;;;;;;;;;;;;17.74;100;101581.3;;;;-77
2023/09/01 19:03:10;;;;;;;;;;;;;;;17.7;100;101583.9;;;;-77
2023/09/01 19:08:18;;;;;;;;;;;;;;;17.63;100;101588.9;;;;-78
2023/09/01 19:13:10;;;;;;;;;;;;;;;17.56;100;101599.5;;;;-79
2023/09/01 19:18:11;;;;;;;;;;;;;;;17.46;100;101610;;;;-78
2023/09/01 19:20:46;;;;;;;22.2;15.3;;;;;;;;;;;;;-76
2023/09/01 19:23:12;;;;;;;;;;;;;;;17.35;100;101615.7;;;;-78
2023/09/01 19:28:09;;;;;;;;;;;;;;;17.24;100;101613.5;;;;-79
2023/09/01 19:33:08;;;;;;;;;;;;;;;17.33;100;101624.3;;;;-78
2023/09/01 19:38:09;;;;;;;;;;;;;;;17.3;100;101637.6;;;;-79
2023/09/01 19:43:13;;;;;;;;;;;;;;;17.25;100;101642.6;;;;-77
2023/09/01 19:48:12;;;;;;;;;;;;;;;17.24;100;101649;;;;-77
2023/09/01 19:50:54;;;;;;;30.4;19.6;;;;;;;;;;;;;-77
2023/09/01 19:53:11;;;;;;;;;;;;;;;17.2;100;101649.4;;;;-78
2023/09/01 19:58:09;;;;;;;;;;;;;;;17.07;100;101648.3;;;;-78
2023/09/01 20:03:10;;;;;;;;;;;;;;;16.99;100;101656.9;;;;-77
2023/09/01 20:08:09;;;;;;;;;;;;;;;16.91;100;101662.8;;;;-79
2023/09/01 20:13:14;;;;;;;;;;;;;;;16.87;100;101665.5;;;;-78
2023/09/01 20:18:10;;;;;;;;;;;;;;;16.81;100;101671.4;;;;-78
2023/09/01 20:20:48;;;;;;;65.5;29.5;;;;;;;;;;;;;-78
2023/09/01 20:23:09;;;;;;;;;;;;;;;16.77;100;101677;;;;-78
2023/09/01 20:28:10;;;;;;;;;;;;;;;16.71;100;101685.9;;;;-77
2023/09/01 20:33:09;;;;;;;;;;;;;;;16.73;100;101692.5;;;;-78
2023/09/01 20:38:08;;;;;;;;;;;;;;;16.68;100;101693.8;;;;-78
2023/09/01 20:43:09;;;;;;;;;;;;;;;16.68;100;101697.7;;;;-78
2023/09/01 20:48:11;;;;;;;;;;;;;;;16.59;100;101702.6;;;;-77
2023/09/01 20:50:51;;;;;;;101.5;36.7;;;;;;;;;;;;;-78
2023/09/01 20:53:08;;;;;;;;;;;;;;;16.62;100;101706.9;;;;-77
2023/09/01 20:58:10;;;;;;;;;;;;;;;16.48;100;101706.9;;;;-77
2023/09/01 21:03:11;;;;;;;;;;;;;;;16.44;100;101710.5;;;;-77
2023/09/01 21:08:10;;;;;;;;;;;;;;;16.45;100;101713.6;;;;-78
2023/09/01 21:13:09;;;;;;;;;;;;;;;16.4;100;101703.9;;;;-77
2023/09/01 21:18:09;;;;;;;;;;;;;;;16.41;100;101714.6;;;;-76
2023/09/01 21:20:55;;;;;;;128.3;36.1;;;;;;;;;;;;;-78
2023/09/01 21:23:10;;;;;;;;;;;;;;;16.36;100;101714.4;;;;-76
2023/09/01 21:28:12;;;;;;;;;;;;;;;16.34;100;101718.3;;;;-78
2023/09/01 21:33:09;;;;;;;;;;;;;;;16.31;100;101717.5;;;;-79
2023/09/01 21:38:11;;;;;;;;;;;;;;;16.24;100;101720.6;;;;-77
2023/09/01 21:43:10;;;;;;;;;;;;;;;16.22;100;101723.8;;;;-78
2023/09/01 21:48:11;;;;;;;;;;;;;;;16.2;100;101721.1;;;;-78
2023/09/01 21:50:57;;;;;;;241.1;50.9;;;;;;;;;;;;;-79
2023/09/01 21:53:09;;;;;;;;;;;;;;;16.19;100;101725.4;;;;-79
2023/09/01 21:58:10;;;;;;;;;;;;;;;16.17;100;101727.3;;;;-80
2023/09/01 22:03:09;;;;;;;;;;;;;;;16.18;100;101725.9;;;;-78
2023/09/01 22:08:11;;;;;;;;;;;;;;;16.16;100;101732.1;;;;-78
2023/09/01 22:13:11;;;;;;;;;;;;;;;16.03;100;101726.4;;;;-80
2023/09/01 22:18:10;;;;;;;;;;;;;;;15.97;100;101724.1;;;;-77
2023/09/01 22:21:00;;;;;;;88.3;27.9;;;;;;;;;;;;;-80
2023/09/01 22:23:09;;;;;;;;;;;;;;;15.88;100;101725;;;;-78
2023/09/01 22:28:09;;;;;;;;;;;;;;;15.88;100;101729.6;;;;-76
2023/09/01 22:33:11;;;;;;;;;;;;;;;15.9;100;101735.7;;;;-80
2023/09/01 22:38:14;;;;;;;;;;;;;;;15.89;100;101741.3;;;;-79
2023/09/01 22:43:09;;;;;;;;;;;;;;;15.97;100;101758.5;;;;-78
2023/09/01 22:48:09;;;;;;;;;;;;;;;15.99;100;101765.1;;;;-78
2023/09/01 22:51:09;;;;;;;160.5;35.2;;;;;;;;;;;;;-79
2023/09/01 22:53:19;;;;;;;;;;;;;;;16.04;100;101757.3;;;;-80
2023/09/01 22:58:13;;;;;;;;;;;;;;;16.08;100;101758.5;;;;-79
2023/09/01 23:03:10;;;;;;;;;;;;;;;16.06;100;101759;;;;-79
2023/09/01 23:08:12;;;;;;;;;;;;;;;16.08;100;101766.6;;;;-80
2023/09/01 23:13:13;;;;;;;;;;;;;;;16.06;100;101764.7;;;;-81
2023/09/01 23:18:09;;;;;;;;;;;;;;;16.08;100;101766.4;;;;-78
2023/09/01 23:21:12;;;;;;;168.3;32.8;;;;;;;;;;;;;-78
2023/09/01 23:23:09;;;;;;;;;;;;;;;16.09;100;101767.1;;;;-79
2023/09/01 23:28:12;;;;;;;;;;;;;;;16.01;100;101776.9;;;;-79
2023/09/01 23:33:15;;;;;;;;;;;;;;;16;100;101786.1;;;;-80
2023/09/01 23:38:14;;;;;;;;;;;;;;;16.03;100;101792;;;;-81
2023/09/01 23:43:10;;;;;;;;;;;;;;;16.02;100;101793.4;;;;-81
2023/09/01 23:48:09;;;;;;;;;;;;;;;16.01;100;101791.8;;;;-79
2023/09/01 23:51:11;;;;;;;208.2;34.8;;;;;;;;;;;;;-78
2023/09/01 23:53:10;;;;;;;;;;;;;;;16.01;100;101790.8;;;;-79
2023/09/01 23:58:14;;;;;;;;;;;;;;;16.01;100;101790.1;;;;-78
